Time;durP1;ratioP1;P1;durP2;ratioP2;P2;SDS_P1;SDS_P2;PMS_P1;PMS_P2;Temp;Humidity;BMP_temperature;BMP_pressure;BME280_temperature;BME280_humidity;BME280_pressure;Samples;Min_cycle;Max_cycle;Signal;HPM_P1;HPM_P2
2021/10/15 00:00:07;;;;;;;9.73;5.50;;;13.10;99.90;;;;;;5112416;27;20399;-82
2021/10/15 00:02:38;;;;;;;7.03;4.47;;;13.20;99.90;;;;;;5113688;27;20047;-82
2021/10/15 00:05:06;;;;;;;6.85;4.93;;;13.20;99.90;;;;;;5112350;27;20035;-81
2021/10/15 00:07:32;;;;;;;6.85;5.07;;;13.10;99.90;;;;;;5117199;27;20035;-83
2021/10/15 00:09:59;;;;;;;8.73;5.40;;;13.10;99.90;;;;;;5120778;27;20038;-83
2021/10/15 00:12:25;;;;;;;11.18;5.85;;;13.10;99.90;;;;;;5116622;27;20046;-83
2021/10/15 00:14:52;;;;;;;8.13;5.53;;;13.10;99.90;;;;;;5081269;27;20034;-82
2021/10/15 00:17:18;;;;;;;8.93;5.97;;;13.10;99.90;;;;;;5092252;27;20039;-83
2021/10/15 00:19:45;;;;;;;8.25;6.03;;;13.10;99.90;;;;;;5114016;27;20043;-83
2021/10/15 00:22:12;;;;;;;9.10;5.47;;;13.10;99.90;;;;;;5093736;27;20043;-82
2021/10/15 00:24:38;;;;;;;8.20;5.38;;;13.00;99.90;;;;;;5085992;27;20579;-82
2021/10/15 00:27:05;;;;;;;8.77;5.55;;;13.00;99.90;;;;;;5110581;27;20039;-83
2021/10/15 00:29:32;;;;;;;10.25;6.93;;;13.00;99.90;;;;;;5105589;27;20035;-82
2021/10/15 00:31:59;;;;;;;10.00;6.28;;;13.00;99.90;;;;;;5121969;27;20031;-81
2021/10/15 00:34:26;;;;;;;8.07;5.63;;;13.00;99.90;;;;;;5119971;27;20061;-82
2021/10/15 00:36:52;;;;;;;8.00;4.75;;;13.00;99.90;;;;;;5111697;27;20050;-82
2021/10/15 00:39:19;;;;;;;7.60;5.82;;;13.00;99.90;;;;;;5115997;27;20055;-82
2021/10/15 00:41:45;;;;;;;9.57;6.13;;;13.00;99.90;;;;;;5109472;27;20035;-82
2021/10/15 00:44:13;;;;;;;8.85;4.80;;;13.00;99.90;;;;;;5108867;27;20035;-82
2021/10/15 00:46:41;;;;;;;6.35;3.95;;;13.00;99.90;;;;;;5072852;27;20027;-82
2021/10/15 00:49:10;;;;;;;7.55;5.72;;;13.00;99.90;;;;;;5108398;27;20049;-82
2021/10/15 00:51:36;;;;;;;7.05;5.28;;;13.00;99.90;;;;;;5122963;27;20391;-82
2021/10/15 00:54:04;;;;;;;12.45;5.82;;;13.00;99.90;;;;;;5123669;27;20395;-82
2021/10/15 00:56:32;;;;;;;6.75;4.70;;;13.00;99.90;;;;;;5106965;27;20363;-82
2021/10/15 00:59:02;;;;;;;7.82;4.88;;;13.00;99.90;;;;;;5115049;27;20792;-82
2021/10/15 01:01:29;;;;;;;7.20;5.60;;;13.00;99.90;;;;;;5108138;27;20054;-82
2021/10/15 01:04:03;;;;;;;8.93;5.47;;;13.00;99.90;;;;;;5074282;27;20059;-82
2021/10/15 01:06:48;;;;;;;9.15;5.43;;;13.00;99.90;;;;;;5116016;27;20050;-82
2021/10/15 01:09:14;;;;;;;7.97;5.38;;;13.00;99.90;;;;;;5073576;27;20038;-83
2021/10/15 01:11:41;;;;;;;8.02;5.13;;;12.90;99.90;;;;;;5091701;28;20511;-82
2021/10/15 01:14:08;;;;;;;7.45;5.38;;;13.00;99.90;;;;;;5108334;27;20062;-82
2021/10/15 01:16:34;;;;;;;9.95;6.60;;;13.00;99.90;;;;;;5108663;27;20399;-82
2021/10/15 01:19:03;;;;;;;8.55;5.55;;;13.00;99.90;;;;;;5087312;28;20062;-82
2021/10/15 01:21:30;;;;;;;12.65;6.22;;;13.00;99.90;;;;;;5107472;28;20043;-83
2021/10/15 01:23:59;;;;;;;6.70;4.32;;;13.00;99.90;;;;;;5118136;27;20430;-82
2021/10/15 01:26:25;;;;;;;6.82;4.90;;;13.00;99.90;;;;;;5107518;28;20041;-81
2021/10/15 01:28:53;;;;;;;6.38;4.85;;;13.00;99.90;;;;;;5093860;28;20031;-82
2021/10/15 01:31:19;;;;;;;7.32;5.07;;;13.00;99.90;;;;;;5091904;28;20035;-82
2021/10/15 01:33:46;;;;;;;7.38;4.90;;;13.00;99.90;;;;;;5105762;28;20388;-82
2021/10/15 01:36:12;;;;;;;8.68;5.72;;;13.00;99.90;;;;;;5075914;27;20039;-82
2021/10/15 01:38:39;;;;;;;8.90;5.38;;;13.00;99.90;;;;;;5107300;28;20050;-82
2021/10/15 01:41:05;;;;;;;8.00;5.85;;;13.00;99.90;;;;;;5077145;27;20058;-82
2021/10/15 01:43:32;;;;;;;11.15;7.35;;;13.00;99.90;;;;;;5091339;28;20039;-82
2021/10/15 01:45:59;;;;;;;7.70;4.82;;;13.00;99.90;;;;;;5091322;27;20034;-82
2021/10/15 01:48:25;;;;;;;8.57;6.10;;;13.00;99.90;;;;;;5118899;27;20031;-82
2021/10/15 01:50:53;;;;;;;8.90;6.10;;;13.00;99.90;;;;;;5109295;28;20031;-81
2021/10/15 01:53:20;;;;;;;7.63;5.43;;;13.00;99.90;;;;;;5106533;28;20046;-82
2021/10/15 01:55:46;;;;;;;8.30;5.90;;;13.00;99.90;;;;;;5120090;27;20042;-82
2021/10/15 01:58:13;;;;;;;8.40;5.78;;;13.00;99.90;;;;;;5105420;28;20059;-82
2021/10/15 02:00:40;;;;;;;9.18;6.57;;;13.00;99.90;;;;;;5109344;27;20035;-82
2021/10/15 02:03:06;;;;;;;8.02;5.57;;;13.00;99.90;;;;;;5119927;28;20050;-82
2021/10/15 02:05:32;;;;;;;9.60;6.45;;;13.00;99.90;;;;;;5108809;28;20059;-82
2021/10/15 02:08:17;;;;;;;10.77;7.05;;;13.00;99.90;;;;;;5088410;28;20521;-82
2021/10/15 02:10:44;;;;;;;8.80;6.13;;;13.00;99.90;;;;;;5107160;28;20043;-82
2021/10/15 02:13:10;;;;;;;11.77;6.82;;;13.00;99.90;;;;;;5072112;28;20027;-82
2021/10/15 02:15:37;;;;;;;10.70;6.32;;;13.00;99.90;;;;;;5117577;27;20047;-82
2021/10/15 02:18:03;;;;;;;8.13;6.53;;;13.00;99.90;;;;;;5106294;28;20031;-82
2021/10/15 02:20:29;;;;;;;8.52;6.35;;;13.00;99.90;;;;;;5093236;28;20819;-82
2021/10/15 02:22:56;;;;;;;9.55;6.90;;;13.00;99.90;;;;;;5093586;27;20423;-81
2021/10/15 02:25:23;;;;;;;10.45;7.57;;;13.00;99.90;;;;;;5088583;28;20063;-82
2021/10/15 02:27:50;;;;;;;9.85;7.75;;;13.00;99.90;;;;;;5090042;28;20035;-82
2021/10/15 02:30:18;;;;;;;10.68;8.10;;;12.90;99.90;;;;;;5110286;28;20035;-82
2021/10/15 02:32:46;;;;;;;10.85;6.95;;;13.00;99.90;;;;;;5107677;28;20031;-82
2021/10/15 02:35:15;;;;;;;9.15;6.80;;;13.00;99.90;;;;;;5109708;27;20039;-82
2021/10/15 02:37:42;;;;;;;10.15;8.18;;;12.90;99.90;;;;;;5092472;27;20044;-82
2021/10/15 02:40:10;;;;;;;9.32;6.72;;;13.00;99.90;;;;;;5117800;27;20043;-82
2021/10/15 02:42:37;;;;;;;13.32;8.75;;;13.00;99.90;;;;;;5112416;27;20055;-84
2021/10/15 02:45:05;;;;;;;10.05;8.30;;;13.00;99.90;;;;;;5109758;27;20035;-83
2021/10/15 02:47:31;;;;;;;10.73;6.65;;;12.90;99.90;;;;;;5109827;27;20487;-83
2021/10/15 02:49:58;;;;;;;9.13;7.10;;;12.90;99.90;;;;;;5113613;27;20386;-83
2021/10/15 02:52:25;;;;;;;11.70;8.27;;;12.90;99.90;;;;;;5077693;27;20035;-83
2021/10/15 02:54:51;;;;;;;8.80;7.03;;;12.90;99.90;;;;;;5094132;27;20042;-83
2021/10/15 02:57:17;;;;;;;10.10;6.90;;;12.90;99.90;;;;;;5116802;27;20485;-83
2021/10/15 02:59:44;;;;;;;9.23;6.07;;;12.90;99.90;;;;;;5112046;27;20039;-84
2021/10/15 03:02:10;;;;;;;9.15;7.68;;;12.90;99.90;;;;;;5113090;27;20043;-84
2021/10/15 03:04:38;;;;;;;12.57;7.22;;;12.90;99.90;;;;;;5111605;27;20043;-84
2021/10/15 03:07:04;;;;;;;10.18;7.05;;;12.90;99.90;;;;;;5111848;27;20034;-84
2021/10/15 03:09:30;;;;;;;10.80;7.57;;;12.90;99.90;;;;;;5123479;27;20040;-84
2021/10/15 03:11:57;;;;;;;10.77;7.47;;;12.90;99.90;;;;;;5058577;27;20038;-84
2021/10/15 03:14:23;;;;;;;10.98;7.90;;;12.90;99.90;;;;;;5092170;27;20058;-84
2021/10/15 03:16:51;;;;;;;8.77;6.95;;;12.90;99.90;;;;;;5109961;27;20141;-84
2021/10/15 03:19:17;;;;;;;13.85;8.15;;;12.90;99.90;;;;;;5108219;27;20044;-84
2021/10/15 03:21:44;;;;;;;11.00;7.55;;;12.90;99.90;;;;;;5081555;27;20039;-84
2021/10/15 03:24:10;;;;;;;12.32;8.40;;;12.80;99.90;;;;;;5095784;27;20051;-84
2021/10/15 03:26:37;;;;;;;8.95;6.43;;;12.90;99.90;;;;;;5120957;27;20051;-84
2021/10/15 03:29:04;;;;;;;11.70;7.95;;;12.90;99.90;;;;;;5111449;27;20108;-83
2021/10/15 03:31:30;;;;;;;12.70;7.85;;;12.90;99.90;;;;;;5124115;27;20042;-84
2021/10/15 03:33:57;;;;;;;15.02;8.23;;;12.80;99.90;;;;;;5113915;27;20042;-83
2021/10/15 03:36:23;;;;;;;10.30;7.25;;;12.80;99.90;;;;;;5120755;27;20504;-83
2021/10/15 03:38:49;;;;;;;10.70;7.22;;;12.80;99.90;;;;;;5120393;27;20040;-84
2021/10/15 03:41:16;;;;;;;12.77;7.80;;;12.80;99.90;;;;;;5094185;27;20031;-83
2021/10/15 03:43:42;;;;;;;10.57;6.93;;;12.80;99.90;;;;;;5110455;27;20487;-83
2021/10/15 03:46:09;;;;;;;11.98;8.75;;;12.80;99.90;;;;;;5108516;27;20039;-84
2021/10/15 03:48:35;;;;;;;10.18;7.53;;;12.80;99.90;;;;;;5088521;27;20031;-84
2021/10/15 03:51:01;;;;;;;10.63;7.50;;;12.80;99.90;;;;;;5110555;27;20038;-84
2021/10/15 03:53:28;;;;;;;11.07;7.88;;;12.80;99.90;;;;;;5088726;27;20039;-83
2021/10/15 03:55:54;;;;;;;13.63;10.23;;;12.80;99.90;;;;;;5075578;27;20042;-83
2021/10/15 03:58:21;;;;;;;11.70;8.70;;;12.80;99.90;;;;;;5119687;27;20027;-83
2021/10/15 04:00:47;;;;;;;11.20;7.80;;;12.80;99.90;;;;;;5109935;27;20038;-83
2021/10/15 04:03:14;;;;;;;10.05;6.60;;;12.80;99.90;;;;;;5095035;27;20047;-83
2021/10/15 04:05:41;;;;;;;10.70;7.55;;;12.80;99.90;;;;;;5089410;27;20043;-83
2021/10/15 04:08:07;;;;;;;11.73;8.98;;;12.80;99.90;;;;;;5107452;27;20042;-83
2021/10/15 04:10:33;;;;;;;16.70;8.77;;;12.80;99.90;;;;;;5093210;27;20049;-76
2021/10/15 04:13:00;;;;;;;11.75;8.00;;;12.80;99.90;;;;;;5092376;27;20030;-76
2021/10/15 04:15:26;;;;;;;10.00;7.30;;;12.80;99.90;;;;;;5062649;27;20050;-76
2021/10/15 04:17:53;;;;;;;8.55;7.40;;;12.80;99.90;;;;;;5057984;27;20032;-76
2021/10/15 04:20:19;;;;;;;10.75;7.28;;;12.80;99.90;;;;;;5074485;27;20047;-76
2021/10/15 04:22:45;;;;;;;8.32;7.30;;;12.80;99.90;;;;;;5089570;27;21292;-76
2021/10/15 04:25:12;;;;;;;12.95;7.72;;;12.80;99.90;;;;;;5040520;27;20036;-76
2021/10/15 04:27:38;;;;;;;11.80;7.35;;;12.80;99.90;;;;;;5086658;27;20032;-76
2021/10/15 04:30:05;;;;;;;10.75;7.47;;;12.80;99.90;;;;;;5091659;27;20036;-76
2021/10/15 04:32:32;;;;;;;11.90;8.32;;;12.70;99.90;;;;;;5103353;27;20035;-76
2021/10/15 04:34:59;;;;;;;13.40;9.23;;;12.80;99.90;;;;;;5075097;27;20047;-76
2021/10/15 04:37:25;;;;;;;15.23;9.38;;;12.70;99.90;;;;;;5106138;27;20039;-76
2021/10/15 04:39:52;;;;;;;9.73;7.47;;;12.70;99.90;;;;;;5071597;27;20534;-76
2021/10/15 04:42:19;;;;;;;16.40;11.35;;;12.80;99.90;;;;;;5072998;27;20046;-76
2021/10/15 04:44:46;;;;;;;13.15;9.25;;;12.80;99.90;;;;;;5128670;27;20038;-76
2021/10/15 04:47:12;;;;;;;12.88;9.27;;;12.80;99.90;;;;;;5081132;27;20034;-76
2021/10/15 04:49:39;;;;;;;11.30;8.20;;;12.80;99.90;;;;;;5089426;27;20058;-76
2021/10/15 04:52:05;;;;;;;12.95;8.80;;;12.80;99.90;;;;;;5109977;27;20035;-76
2021/10/15 04:54:32;;;;;;;11.70;9.57;;;12.80;99.90;;;;;;5050252;27;20053;-76
2021/10/15 04:56:58;;;;;;;11.68;8.32;;;12.80;99.90;;;;;;5116978;27;20031;-77
2021/10/15 04:59:25;;;;;;;14.02;9.38;;;12.80;99.90;;;;;;5074500;27;20461;-76
2021/10/15 05:01:52;;;;;;;13.52;8.95;;;12.80;99.90;;;;;;5088211;27;20047;-77
2021/10/15 05:04:20;;;;;;;13.75;8.80;;;12.80;99.90;;;;;;5090968;27;20044;-76
2021/10/15 05:06:47;;;;;;;12.63;10.32;;;12.90;99.90;;;;;;5090056;27;20032;-77
2021/10/15 05:09:26;;;;;;;12.65;9.45;;;12.80;99.90;;;;;;5092111;27;20032;-76
2021/10/15 05:11:54;;;;;;;12.20;8.73;;;12.80;99.90;;;;;;5076257;27;20746;-76
2021/10/15 05:14:20;;;;;;;14.77;9.27;;;12.90;99.90;;;;;;5075453;27;20428;-76
2021/10/15 05:16:47;;;;;;;14.05;9.77;;;12.90;99.90;;;;;;5106621;27;20042;-76
2021/10/15 05:19:14;;;;;;;14.43;10.43;;;12.90;99.90;;;;;;5074857;27;20039;-76
2021/10/15 05:21:40;;;;;;;12.65;8.63;;;12.90;99.90;;;;;;5090691;27;20035;-76
2021/10/15 05:24:06;;;;;;;11.05;9.30;;;12.90;99.90;;;;;;5091130;27;20031;-75
2021/10/15 05:26:33;;;;;;;16.52;10.15;;;12.90;99.90;;;;;;5101965;27;20388;-76
2021/10/15 05:28:59;;;;;;;14.32;10.90;;;12.90;99.90;;;;;;5103046;27;20036;-76
2021/10/15 05:31:26;;;;;;;13.45;8.75;;;12.90;99.90;;;;;;5037759;27;20479;-76
2021/10/15 05:33:52;;;;;;;14.77;9.20;;;12.90;99.90;;;;;;5091651;28;20032;-77
2021/10/15 05:36:18;;;;;;;12.20;9.93;;;12.90;99.90;;;;;;5080563;27;20043;-76
2021/10/15 05:38:45;;;;;;;13.40;9.95;;;12.90;99.90;;;;;;5112922;27;20613;-77
2021/10/15 05:41:11;;;;;;;14.00;10.63;;;12.90;99.90;;;;;;5085542;27;20047;-77
2021/10/15 05:43:38;;;;;;;16.02;10.60;;;12.90;99.90;;;;;;5089238;27;20039;-76
2021/10/15 05:46:04;;;;;;;18.58;11.00;;;12.90;99.90;;;;;;5086682;27;20031;-77
2021/10/15 05:48:31;;;;;;;15.30;12.05;;;12.90;99.90;;;;;;5120825;27;20050;-77
2021/10/15 05:50:58;;;;;;;13.35;10.35;;;12.90;99.90;;;;;;5106086;27;20063;-77
2021/10/15 05:53:25;;;;;;;14.60;10.82;;;12.90;99.90;;;;;;5090018;27;20058;-77
2021/10/15 06:01:06;;;;;;;12.38;9.50;;;12.90;99.90;;;;;;5061911;27;20049;-77
2021/10/15 06:03:33;;;;;;;15.38;12.07;;;12.90;99.90;;;;;;5106440;27;20522;-77
2021/10/15 06:14:18;;;;;;;17.05;10.57;;;12.90;99.90;;;;;;5081857;27;20063;-77
2021/10/15 06:16:50;;;;;;;19.60;10.88;;;12.90;99.90;;;;;;5064431;27;20510;-77
2021/10/15 06:19:19;;;;;;;12.98;10.25;;;12.90;99.90;;;;;;5091290;28;20491;-76
2021/10/15 06:21:46;;;;;;;17.13;11.82;;;12.90;99.90;;;;;;5058907;27;20045;-76
2021/10/15 06:24:13;;;;;;;18.20;12.20;;;12.90;99.90;;;;;;5096906;27;20053;-76
2021/10/15 06:26:39;;;;;;;15.98;11.68;;;12.90;99.90;;;;;;5112168;27;20057;-76
2021/10/15 06:29:06;;;;;;;13.10;10.43;;;12.90;99.90;;;;;;5130702;27;20035;-77
2021/10/15 06:31:32;;;;;;;17.50;11.57;;;12.90;99.90;;;;;;5109701;27;20038;-76
2021/10/15 06:33:59;;;;;;;13.77;9.98;;;12.90;99.90;;;;;;5091885;27;20045;-77
2021/10/15 06:36:25;;;;;;;16.65;11.77;;;13.00;99.90;;;;;;5113261;27;20043;-76
2021/10/15 06:38:52;;;;;;;18.48;10.60;;;13.00;99.90;;;;;;5123116;27;20041;-76
2021/10/15 06:41:19;;;;;;;16.70;10.40;;;13.00;99.90;;;;;;5097688;27;20034;-76
2021/10/15 06:43:46;;;;;;;17.73;11.32;;;13.00;99.90;;;;;;5096347;27;20035;-76
2021/10/15 06:46:13;;;;;;;14.77;11.18;;;13.00;99.90;;;;;;5106708;27;20047;-76
2021/10/15 06:48:40;;;;;;;18.15;12.15;;;13.00;99.90;;;;;;5094596;27;20407;-75
2021/10/15 06:51:06;;;;;;;14.90;10.88;;;12.90;99.90;;;;;;5075161;27;20031;-75
2021/10/15 06:53:33;;;;;;;16.83;12.10;;;12.90;99.90;;;;;;5110390;27;20043;-75
2021/10/15 06:55:59;;;;;;;21.92;12.85;;;12.90;99.90;;;;;;5096949;27;20429;-75
2021/10/15 06:58:26;;;;;;;18.15;14.10;;;12.80;99.90;;;;;;5093258;27;20922;-75
2021/10/15 07:00:52;;;;;;;20.77;12.27;;;12.80;99.90;;;;;;5113738;27;20054;-74
2021/10/15 07:03:20;;;;;;;13.70;10.38;;;12.80;99.90;;;;;;5110666;27;20523;-75
2021/10/15 07:05:46;;;;;;;6.97;5.20;;;12.70;99.90;;;;;;5105722;27;20036;-74
2021/10/15 07:08:13;;;;;;;6.00;2.95;;;12.60;99.90;;;;;;5088994;27;20038;-75
2021/10/15 07:10:40;;;;;;;3.60;1.73;;;12.50;99.90;;;;;;5121638;27;20467;-74
2021/10/15 07:13:06;;;;;;;2.67;1.10;;;12.30;99.90;;;;;;5089817;27;20415;-74
2021/10/15 07:15:33;;;;;;;2.13;0.90;;;12.30;99.90;;;;;;5123543;27;20035;-75
2021/10/15 07:17:59;;;;;;;2.35;0.75;;;12.20;99.90;;;;;;5120986;27;20063;-75
2021/10/15 07:20:27;;;;;;;1.40;0.50;;;12.20;99.90;;;;;;5056629;27;20043;-74
2021/10/15 07:22:54;;;;;;;2.38;0.77;;;12.20;99.90;;;;;;5106508;27;20024;-75
2021/10/15 07:25:21;;;;;;;1.10;0.40;;;12.20;99.90;;;;;;5093124;27;20046;-73
2021/10/15 07:27:48;;;;;;;0.60;0.20;;;12.10;99.90;;;;;;5106232;27;20031;-74
2021/10/15 07:30:15;;;;;;;0.85;0.20;;;12.10;99.90;;;;;;5124722;27;20026;-74
2021/10/15 07:32:41;;;;;;;1.42;0.20;;;12.00;99.90;;;;;;5104597;27;20028;-74
2021/10/15 07:35:08;;;;;;;1.63;0.10;;;11.90;99.90;;;;;;5130694;27;20068;-76
2021/10/15 07:37:36;;;;;;;0.98;0.20;;;11.80;99.90;;;;;;5086697;27;20042;-74
2021/10/15 07:40:04;;;;;;;5.38;1.75;;;11.70;99.90;;;;;;5113796;27;20035;-74
2021/10/15 07:42:32;;;;;;;1.95;0.68;;;11.70;99.90;;;;;;5093587;27;20130;-73
2021/10/15 07:44:59;;;;;;;2.67;0.60;;;11.70;99.90;;;;;;5116560;27;20085;-73
2021/10/15 07:47:25;;;;;;;2.90;0.60;;;11.70;99.90;;;;;;5120808;27;20043;-73
2021/10/15 07:49:52;;;;;;;1.77;0.30;;;11.70;99.90;;;;;;5115184;27;20036;-73
2021/10/15 07:52:18;;;;;;;3.10;0.30;;;11.60;99.90;;;;;;5068677;27;20032;-73
2021/10/15 07:54:45;;;;;;;1.23;0.30;;;11.60;99.90;;;;;;5108914;27;20024;-73
2021/10/15 07:57:13;;;;;;;3.83;0.20;;;11.60;99.90;;;;;;5127813;27;20038;-73
2021/10/15 07:59:40;;;;;;;1.77;0.22;;;11.60;99.90;;;;;;5105690;27;20042;-74
2021/10/15 08:02:07;;;;;;;2.65;0.20;;;11.60;99.90;;;;;;5109612;27;20035;-73
2021/10/15 08:04:35;;;;;;;1.88;0.20;;;11.60;99.90;;;;;;5112595;27;20039;-73
2021/10/15 08:07:03;;;;;;;3.63;1.13;;;11.70;99.90;;;;;;5103254;27;20042;-73
2021/10/15 08:09:30;;;;;;;3.42;0.50;;;11.70;99.90;;;;;;5103682;27;20023;-73
2021/10/15 08:11:57;;;;;;;3.45;0.47;;;11.70;99.90;;;;;;5094981;27;20032;-74
2021/10/15 08:14:23;;;;;;;2.78;0.50;;;11.60;99.90;;;;;;5072773;27;20040;-73
2021/10/15 08:16:51;;;;;;;3.30;0.30;;;11.60;99.90;;;;;;5107165;27;20035;-73
2021/10/15 08:19:17;;;;;;;3.30;0.40;;;11.60;99.90;;;;;;5113877;27;20486;-73
2021/10/15 08:21:44;;;;;;;5.28;0.40;;;11.60;99.90;;;;;;5104780;27;20035;-73
2021/10/15 08:24:11;;;;;;;2.65;0.20;;;11.70;99.90;;;;;;5114388;27;20036;-73
2021/10/15 08:26:37;;;;;;;4.55;0.30;;;11.70;99.90;;;;;;5103565;27;20373;-73
2021/10/15 08:29:04;;;;;;;1.42;0.25;;;11.80;99.90;;;;;;5123881;27;20036;-73
2021/10/15 08:31:30;;;;;;;2.38;0.70;;;11.90;99.90;;;;;;5109844;27;20031;-73
2021/10/15 08:33:57;;;;;;;3.75;0.30;;;11.90;99.90;;;;;;5110231;27;20036;-73
2021/10/15 08:36:23;;;;;;;4.32;0.22;;;11.90;99.90;;;;;;5110192;27;20034;-73
2021/10/15 08:38:51;;;;;;;4.97;0.30;;;12.00;99.90;;;;;;5107587;27;20955;-73
2021/10/15 08:41:23;;;;;;;2.25;0.22;;;12.00;99.90;;;;;;5110712;27;20442;-73
2021/10/15 08:43:53;;;;;;;4.53;0.85;;;12.00;99.90;;;;;;5111028;27;20040;-73
2021/10/15 08:46:22;;;;;;;4.60;0.52;;;11.90;99.90;;;;;;5105067;27;20023;-73
2021/10/15 08:48:49;;;;;;;4.55;0.38;;;12.00;99.90;;;;;;5104024;27;20053;-73
2021/10/15 08:51:15;;;;;;;5.25;0.40;;;12.00;99.90;;;;;;5088004;27;20039;-73
2021/10/15 08:53:47;;;;;;;3.28;0.30;;;12.00;99.90;;;;;;5104608;27;20051;-73
2021/10/15 08:56:16;;;;;;;4.10;0.65;;;12.10;99.90;;;;;;5113499;27;20027;-73
2021/10/15 08:58:56;;;;;;;1.65;0.30;;;12.20;99.90;;;;;;5086087;27;20043;-73
2021/10/15 09:01:26;;;;;;;3.35;0.30;;;12.30;99.90;;;;;;5104745;27;20035;-73
2021/10/15 09:04:04;;;;;;;3.35;0.20;;;12.50;99.90;;;;;;5101442;27;20814;-73
2021/10/15 09:06:41;;;;;;;3.03;0.30;;;12.60;99.90;;;;;;5098276;28;20043;-74
2021/10/15 09:09:08;;;;;;;2.50;0.40;;;12.60;99.90;;;;;;5081277;28;20777;-73
2021/10/15 09:11:47;;;;;;;1.67;0.30;;;12.70;99.90;;;;;;5102597;28;20043;-73
2021/10/15 09:14:25;;;;;;;4.05;0.68;;;12.70;99.90;;;;;;5082766;28;20043;-73
2021/10/15 09:16:58;;;;;;;1.83;0.55;;;12.70;99.90;;;;;;5098486;28;20031;-73
2021/10/15 09:19:31;;;;;;;3.83;0.50;;;12.70;99.90;;;;;;5099463;28;20042;-73
2021/10/15 09:22:19;;;;;;;5.28;0.60;;;12.70;99.90;;;;;;5098668;28;20484;-73
2021/10/15 09:24:47;;;;;;;7.05;0.80;;;12.70;99.90;;;;;;5100846;28;20518;-73
2021/10/15 09:27:29;;;;;;;6.38;0.82;;;12.70;99.90;;;;;;5099871;28;20039;-73
2021/10/15 09:30:09;;;;;;;7.43;0.60;;;12.70;99.90;;;;;;5096895;28;20024;-73
2021/10/15 09:32:44;;;;;;;4.65;0.52;;;12.70;99.90;;;;;;5066183;28;20036;-73
2021/10/15 09:35:13;;;;;;;5.72;0.50;;;12.80;99.90;;;;;;5100479;28;20034;-73
2021/10/15 09:37:43;;;;;;;5.25;0.60;;;12.90;99.90;;;;;;5096756;28;20030;-74
2021/10/15 09:40:09;;;;;;;4.00;0.70;;;12.90;99.90;;;;;;5099911;28;20047;-73
2021/10/15 09:42:56;;;;;;;3.67;0.40;;;12.80;99.90;;;;;;5101754;28;20410;-74
2021/10/15 09:45:31;;;;;;;9.80;0.60;;;12.90;99.90;;;;;;5105382;28;20396;-73
2021/10/15 09:47:59;;;;;;;6.93;0.60;;;12.90;99.90;;;;;;5104636;28;20028;-74
2021/10/15 09:50:28;;;;;;;5.38;0.60;;;13.00;99.90;;;;;;5106927;28;20042;-73
2021/10/15 09:52:56;;;;;;;5.90;0.60;;;13.30;99.90;;;;;;5104631;28;20028;-73
2021/10/15 09:55:35;;;;;;;4.43;0.63;;;13.40;99.90;;;;;;5104416;28;20059;-73
2021/10/15 09:58:28;;;;;;;4.55;0.85;;;13.50;99.90;;;;;;5106410;28;20514;-73
2021/10/15 10:00:54;;;;;;;4.70;0.50;;;13.70;99.90;;;;;;5064848;28;20044;-73
2021/10/15 10:03:24;;;;;;;5.88;0.65;;;14.00;99.90;;;;;;5104519;28;20047;-74
2021/10/15 10:05:50;;;;;;;4.22;0.60;;;14.20;99.90;;;;;;5103597;28;20048;-74
2021/10/15 10:08:18;;;;;;;5.68;0.55;;;14.40;99.90;;;;;;5070427;28;20044;-73
2021/10/15 10:10:45;;;;;;;6.28;0.70;;;14.40;99.90;;;;;;5085300;28;20032;-73
2021/10/15 10:13:14;;;;;;;9.23;1.13;;;14.30;99.90;;;;;;5086565;28;20041;-74
2021/10/15 10:15:45;;;;;;;11.20;0.65;;;14.30;99.90;;;;;;5085411;28;20051;-73
2021/10/15 10:20:58;;;;;;;7.30;0.63;;;14.90;99.90;;;;;;5105645;28;20050;-74
2021/10/15 10:23:30;;;;;;;7.97;1.13;;;15.00;99.90;;;;;;5106530;28;20024;-73
2021/10/15 10:26:20;;;;;;;7.25;0.95;;;15.00;99.90;;;;;;5087827;28;20496;-74
2021/10/15 10:29:03;;;;;;;4.40;0.70;;;15.00;99.90;;;;;;5103039;28;20032;-74
2021/10/15 10:31:31;;;;;;;5.20;0.77;;;15.00;99.90;;;;;;5103442;28;20038;-74
2021/10/15 10:34:03;;;;;;;3.13;0.57;;;15.20;99.90;;;;;;5104449;28;20036;-74
2021/10/15 10:36:31;;;;;;;4.00;0.50;;;15.60;99.90;;;;;;5103869;28;20036;-74
2021/10/15 10:39:21;;;;;;;6.13;0.77;;;15.90;99.90;;;;;;5100502;28;20055;-74
2021/10/15 10:42:07;;;;;;;4.18;0.55;;;16.30;99.90;;;;;;5096603;28;20051;-74
2021/10/15 10:44:44;;;;;;;8.32;0.70;;;16.40;99.90;;;;;;5105961;28;20034;-74
2021/10/15 10:47:17;;;;;;;5.95;0.80;;;16.50;99.90;;;;;;5087941;28;20038;-74
2021/10/15 10:50:04;;;;;;;6.10;0.70;;;16.80;99.90;;;;;;5102969;28;20047;-74
2021/10/15 10:52:34;;;;;;;6.10;0.80;;;17.10;99.90;;;;;;5106004;28;20513;-74
2021/10/15 10:55:02;;;;;;;5.88;0.50;;;17.40;99.90;;;;;;5104306;28;20516;-74
2021/10/15 10:57:31;;;;;;;6.85;0.70;;;17.50;99.90;;;;;;5103318;28;20028;-74
2021/10/15 11:00:22;;;;;;;6.53;0.93;;;17.60;99.90;;;;;;5102280;28;20031;-74
2021/10/15 11:02:54;;;;;;;4.50;0.80;;;17.40;99.90;;;;;;5108385;27;20494;-74
2021/10/15 11:05:41;;;;;;;5.82;0.60;;;17.10;99.90;;;;;;5093697;27;20705;-74
2021/10/15 11:08:28;;;;;;;9.32;0.90;;;16.70;99.90;;;;;;5094599;27;20043;-74
2021/10/15 11:11:21;;;;;;;3.65;0.52;;;16.10;99.90;;;;;;5103976;27;20333;-74
2021/10/15 11:13:49;;;;;;;7.70;0.75;;;15.60;99.90;;;;;;5122118;27;20038;-74
2021/10/15 11:16:19;;;;;;;4.03;1.10;;;15.20;99.90;;;;;;5105721;27;20488;-74
2021/10/15 11:18:46;;;;;;;6.85;0.90;;;15.20;99.90;;;;;;5107013;27;20524;-74
2021/10/15 11:21:13;;;;;;;9.02;1.00;;;15.20;99.90;;;;;;5105252;27;20027;-74
2021/10/15 11:23:40;;;;;;;7.75;0.63;;;15.30;99.90;;;;;;5105946;27;20051;-74
2021/10/15 11:26:07;;;;;;;6.05;0.47;;;15.30;99.90;;;;;;5111433;27;20499;-74
2021/10/15 11:28:33;;;;;;;5.40;0.50;;;15.40;99.90;;;;;;5104363;27;20388;-74
2021/10/15 11:31:00;;;;;;;6.30;0.57;;;15.50;99.90;;;;;;5124859;27;20102;-74
2021/10/15 11:33:27;;;;;;;3.90;0.43;;;15.50;99.90;;;;;;5105625;27;20024;-74
2021/10/15 11:35:55;;;;;;;5.95;0.60;;;15.70;99.90;;;;;;5107009;27;20396;-74
2021/10/15 11:38:25;;;;;;;3.30;0.50;;;15.70;99.90;;;;;;5123399;27;20034;-74
2021/10/15 11:41:02;;;;;;;5.53;0.50;;;15.60;99.90;;;;;;5126309;27;20031;-74
2021/10/15 11:43:32;;;;;;;4.28;0.40;;;15.40;99.90;;;;;;5117416;27;20756;-74
2021/10/15 11:46:05;;;;;;;3.72;0.50;;;15.20;99.90;;;;;;5089316;27;20055;-74
2021/10/15 11:48:42;;;;;;;4.88;0.50;;;14.90;99.90;;;;;;5121176;27;20038;-74
2021/10/15 11:51:16;;;;;;;5.28;0.73;;;14.60;99.90;;;;;;5109809;27;20031;-74
2021/10/15 11:53:48;;;;;;;6.88;0.60;;;14.60;99.90;;;;;;5111472;27;20042;-74
2021/10/15 11:56:23;;;;;;;5.03;0.60;;;15.30;99.90;;;;;;5115693;27;20036;-74
2021/10/15 11:58:56;;;;;;;5.47;0.50;;;16.40;99.90;;;;;;5122100;27;20034;-74
2021/10/15 12:01:33;;;;;;;5.90;1.30;;;17.40;99.90;;;;;;5101777;27;20036;-74
2021/10/15 12:04:11;;;;;;;4.05;0.90;;;18.30;99.90;;;;;;5075382;27;20074;-74
2021/10/15 12:06:45;;;;;;;2.97;0.52;;;19.10;99.90;;;;;;5083510;27;20046;-74
2021/10/15 12:09:11;;;;;;;5.95;0.90;;;19.70;99.90;;;;;;5092280;27;20513;-74
2021/10/15 12:11:41;;;;;;;5.43;0.65;;;20.10;99.90;;;;;;5125485;27;20022;-75
2021/10/15 12:14:28;;;;;;;3.55;0.60;;;20.50;99.90;;;;;;5126809;27;20071;-74
2021/10/15 12:17:11;;;;;;;3.38;0.43;;;20.90;98.90;;;;;;5104539;27;20054;-74
2021/10/15 12:19:40;;;;;;;3.65;0.60;;;21.60;98.00;;;;;;5089245;27;20043;-74
2021/10/15 12:22:12;;;;;;;4.13;0.65;;;22.00;95.30;;;;;;5121994;27;20031;-75
2021/10/15 12:24:44;;;;;;;5.70;0.70;;;22.00;92.40;;;;;;5122159;27;20498;-75
2021/10/15 12:27:24;;;;;;;6.00;1.00;;;21.10;92.40;;;;;;5105714;27;20153;-75
2021/10/15 12:30:25;;;;;;;6.50;1.20;;;20.10;92.00;;;;;;5105233;27;20027;-75
2021/10/15 12:32:52;;;;;;;5.40;0.85;;;19.10;93.30;;;;;;5103979;27;20031;-74
2021/10/15 12:35:21;;;;;;;5.50;0.95;;;18.30;94.60;;;;;;5118507;27;20100;-74
2021/10/15 12:37:51;;;;;;;6.28;1.00;;;17.80;95.50;;;;;;5104406;27;20109;-74
2021/10/15 12:40:24;;;;;;;7.97;1.10;;;17.30;95.10;;;;;;5102508;27;20057;-74
2021/10/15 12:43:17;;;;;;;6.95;0.85;;;16.90;95.80;;;;;;5122343;27;20047;-74
2021/10/15 12:45:55;;;;;;;4.13;0.85;;;16.60;96.70;;;;;;5109035;27;20523;-74
2021/10/15 12:48:24;;;;;;;9.30;1.10;;;16.40;97.00;;;;;;5115691;27;20022;-74
2021/10/15 12:51:14;;;;;;;7.25;0.95;;;16.30;97.50;;;;;;5125428;27;20039;-74
2021/10/15 12:53:45;;;;;;;8.80;1.20;;;16.20;97.50;;;;;;5089335;27;20038;-74
2021/10/15 12:56:21;;;;;;;11.70;1.25;;;16.00;97.80;;;;;;5121141;27;20039;-74
2021/10/15 12:58:54;;;;;;;11.18;0.88;;;15.90;97.90;;;;;;5115499;27;20039;-73
2021/10/15 13:01:25;;;;;;;7.25;1.45;;;15.80;97.80;;;;;;5109314;27;20499;-74
2021/10/15 13:03:52;;;;;;;12.60;1.35;;;15.70;98.10;;;;;;5119248;27;20044;-73
2021/10/15 13:06:19;;;;;;;8.63;1.13;;;15.60;97.90;;;;;;5090812;27;20047;-74
2021/10/15 13:08:51;;;;;;;7.55;0.80;;;15.50;98.20;;;;;;5118419;27;20046;-74